sensor_id;sensor_type;location;lat;lon;timestamp;temperature;humidity
17423;DHT22;8829;47.932;7.810;2023-04-06T00:00:13;2.10;99.90
17423;DHT22;8829;47.932;7.810;2023-04-06T00:02:40;2.10;99.90
17423;DHT22;8829;47.932;7.810;2023-04-06T00:05:08;2.10;99.90
17423;DHT22;8829;47.932;7.810;2023-04-06T00:07:36;2.10;99.90
17423;DHT22;8829;47.932;7.810;2023-04-06T00:10:04;2.10;99.90
17423;DHT22;8829;47.932;7.810;2023-04-06T00:12:30;2.10;99.90
17423;DHT22;8829;47.932;7.810;2023-04-06T00:14:57;2.10;99.90
17423;DHT22;8829;47.932;7.810;2023-04-06T00:17:24;2.00;99.90
17423;DHT22;8829;47.932;7.810;2023-04-06T00:19:51;2.00;99.90
17423;DHT22;8829;47.932;7.810;2023-04-06T00:22:18;2.00;99.90
17423;DHT22;8829;47.932;7.810;2023-04-06T00:24:46;2.00;99.90
17423;DHT22;8829;47.932;7.810;2023-04-06T00:27:12;1.90;99.90
17423;DHT22;8829;47.932;7.810;2023-04-06T00:29:39;1.90;99.90
17423;DHT22;8829;47.932;7.810;2023-04-06T00:32:06;1.90;99.90
17423;DHT22;8829;47.932;7.810;2023-04-06T00:34:33;1.90;99.90
17423;DHT22;8829;47.932;7.810;2023-04-06T00:36:59;1.80;99.90
17423;DHT22;8829;47.932;7.810;2023-04-06T00:39:26;1.80;99.90
17423;DHT22;8829;47.932;7.810;2023-04-06T00:41:55;1.80;99.90
17423;DHT22;8829;47.932;7.810;2023-04-06T00:44:22;1.70;99.90
17423;DHT22;8829;47.932;7.810;2023-04-06T00:46:49;1.60;99.90
17423;DHT22;8829;47.932;7.810;2023-04-06T00:49:15;1.70;99.90
17423;DHT22;8829;47.932;7.810;2023-04-06T00:51:42;1.60;99.90
17423;DHT22;8829;47.932;7.810;2023-04-06T00:54:09;1.60;99.90
17423;DHT22;8829;47.932;7.810;2023-04-06T00:56:35;1.40;99.90
17423;DHT22;8829;47.932;7.810;2023-04-06T00:59:03;1.40;99.90
17423;DHT22;8829;47.932;7.810;2023-04-06T01:01:30;1.40;99.90
17423;DHT22;8829;47.932;7.810;2023-04-06T01:03:58;1.50;99.90
17423;DHT22;8829;47.932;7.810;2023-04-06T01:06:24;1.60;99.90
17423;DHT22;8829;47.932;7.810;2023-04-06T01:08:51;1.60;99.90
17423;DHT22;8829;47.932;7.810;2023-04-06T01:11:18;1.60;99.90
17423;DHT22;8829;47.932;7.810;2023-04-06T01:13:44;1.60;99.90
17423;DHT22;8829;47.932;7.810;2023-04-06T01:16:12;1.50;99.90
17423;DHT22;8829;47.932;7.810;2023-04-06T01:18:39;1.50;99.90
17423;DHT22;8829;47.932;7.810;2023-04-06T01:21:08;1.50;99.90
17423;DHT22;8829;47.932;7.810;2023-04-06T01:23:42;1.50;99.90
17423;DHT22;8829;47.932;7.810;2023-04-06T01:26:09;1.50;99.90
17423;DHT22;8829;47.932;7.810;2023-04-06T01:28:36;1.40;99.90
17423;DHT22;8829;47.932;7.810;2023-04-06T01:31:02;1.40;99.90
17423;DHT22;8829;47.932;7.810;2023-04-06T01:33:30;1.40;99.90
17423;DHT22;8829;47.932;7.810;2023-04-06T01:35:56;1.40;99.90
17423;DHT22;8829;47.932;7.810;2023-04-06T01:38:23;1.40;99.90
17423;DHT22;8829;47.932;7.810;2023-04-06T01:40:51;1.30;99.90
17423;DHT22;8829;47.932;7.810;2023-04-06T01:43:18;1.30;99.90
17423;DHT22;8829;47.932;7.810;2023-04-06T01:45:44;1.20;99.90
17423;DHT22;8829;47.932;7.810;2023-04-06T01:48:11;1.20;99.90
17423;DHT22;8829;47.932;7.810;2023-04-06T01:50:38;1.10;99.90
17423;DHT22;8829;47.932;7.810;2023-04-06T01:53:04;1.20;99.90
17423;DHT22;8829;47.932;7.810;2023-04-06T01:55:31;1.30;99.90
17423;DHT22;8829;47.932;7.810;2023-04-06T01:57:59;1.30;99.90
17423;DHT22;8829;47.932;7.810;2023-04-06T02:00:26;1.30;99.90
17423;DHT22;8829;47.932;7.810;2023-04-06T02:02:52;1.20;99.90
17423;DHT22;8829;47.932;7.810;2023-04-06T02:05:19;1.20;99.90
17423;DHT22;8829;47.932;7.810;2023-04-06T02:07:46;1.20;99.90
17423;DHT22;8829;47.932;7.810;2023-04-06T02:10:14;1.20;99.90
17423;DHT22;8829;47.932;7.810;2023-04-06T02:12:41;1.30;99.90
17423;DHT22;8829;47.932;7.810;2023-04-06T02:15:10;1.30;99.90
17423;DHT22;8829;47.932;7.810;2023-04-06T02:17:38;1.20;99.90
17423;DHT22;8829;47.932;7.810;2023-04-06T02:20:06;1.20;99.90
17423;DHT22;8829;47.932;7.810;2023-04-06T02:22:33;1.20;99.90
17423;DHT22;8829;47.932;7.810;2023-04-06T02:25:00;1.00;99.90
17423;DHT22;8829;47.932;7.810;2023-04-06T02:27:26;1.10;99.90
17423;DHT22;8829;47.932;7.810;2023-04-06T02:29:53;1.10;99.90
17423;DHT22;8829;47.932;7.810;2023-04-06T02:32:21;1.10;99.90
17423;DHT22;8829;47.932;7.810;2023-04-06T02:34:48;1.20;99.90
17423;DHT22;8829;47.932;7.810;2023-04-06T02:37:15;1.00;99.90
17423;DHT22;8829;47.932;7.810;2023-04-06T02:39:41;1.00;99.90
17423;DHT22;8829;47.932;7.810;2023-04-06T02:42:08;1.00;99.90
17423;DHT22;8829;47.932;7.810;2023-04-06T02:44:35;1.00;99.90
17423;DHT22;8829;47.932;7.810;2023-04-06T02:47:03;1.00;99.90
17423;DHT22;8829;47.932;7.810;2023-04-06T02:49:31;1.00;99.90
17423;DHT22;8829;47.932;7.810;2023-04-06T02:51:57;1.00;99.90
17423;DHT22;8829;47.932;7.810;2023-04-06T02:54:24;0.90;99.90
17423;DHT22;8829;47.932;7.810;2023-04-06T02:56:51;0.90;99.90
17423;DHT22;8829;47.932;7.810;2023-04-06T02:59:17;0.90;99.90
17423;DHT22;8829;47.932;7.810;2023-04-06T03:01:44;0.90;99.90
17423;DHT22;8829;47.932;7.810;2023-04-06T03:04:11;0.80;99.90
17423;DHT22;8829;47.932;7.810;2023-04-06T03:06:39;0.80;99.90
17423;DHT22;8829;47.932;7.810;2023-04-06T03:09:06;0.80;99.90
17423;DHT22;8829;47.932;7.810;2023-04-06T03:11:33;0.80;99.90
17423;DHT22;8829;47.932;7.810;2023-04-06T03:14:00;0.80;99.90
17423;DHT22;8829;47.932;7.810;2023-04-06T03:16:26;0.80;99.90
17423;DHT22;8829;47.932;7.810;2023-04-06T03:18:53;0.80;99.90
17423;DHT22;8829;47.932;7.810;2023-04-06T03:21:20;0.90;99.90
17423;DHT22;8829;47.932;7.810;2023-04-06T03:23:48;0.90;99.90
17423;DHT22;8829;47.932;7.810;2023-04-06T03:26:16;0.90;99.90
17423;DHT22;8829;47.932;7.810;2023-04-06T03:28:43;0.90;99.90
17423;DHT22;8829;47.932;7.810;2023-04-06T03:31:09;0.90;99.90
17423;DHT22;8829;47.932;7.810;2023-04-06T03:33:36;0.90;99.90
17423;DHT22;8829;47.932;7.810;2023-04-06T03:36:04;0.70;99.90
17423;DHT22;8829;47.932;7.810;2023-04-06T03:38:31;0.60;99.90
17423;DHT22;8829;47.932;7.810;2023-04-06T03:40:59;0.60;99.90
17423;DHT22;8829;47.932;7.810;2023-04-06T03:43:26;0.60;99.90
17423;DHT22;8829;47.932;7.810;2023-04-06T03:45:53;0.70;99.90
17423;DHT22;8829;47.932;7.810;2023-04-06T03:48:20;0.70;99.90
17423;DHT22;8829;47.932;7.810;2023-04-06T03:50:46;0.70;99.90
17423;DHT22;8829;47.932;7.810;2023-04-06T03:53:14;0.70;99.90
17423;DHT22;8829;47.932;7.810;2023-04-06T03:55:41;0.60;99.90
17423;DHT22;8829;47.932;7.810;2023-04-06T03:58:09;0.60;99.90
17423;DHT22;8829;47.932;7.810;2023-04-06T04:00:36;0.60;99.90
17423;DHT22;8829;47.932;7.810;2023-04-06T04:03:02;0.60;99.90
17423;DHT22;8829;47.932;7.810;2023-04-06T04:05:29;0.60;99.90
17423;DHT22;8829;47.932;7.810;2023-04-06T04:07:56;0.60;99.90
17423;DHT22;8829;47.932;7.810;2023-04-06T04:10:23;0.60;99.90
17423;DHT22;8829;47.932;7.810;2023-04-06T04:12:49;0.50;99.90
17423;DHT22;8829;47.932;7.810;2023-04-06T04:15:17;0.50;99.90
17423;DHT22;8829;47.932;7.810;2023-04-06T04:17:44;0.40;99.90
17423;DHT22;8829;47.932;7.810;2023-04-06T04:20:14;0.50;99.90
17423;DHT22;8829;47.932;7.810;2023-04-06T04:22:41;0.50;99.90
17423;DHT22;8829;47.932;7.810;2023-04-06T04:25:09;0.50;99.90
17423;DHT22;8829;47.932;7.810;2023-04-06T04:27:35;0.50;99.90
17423;DHT22;8829;47.932;7.810;2023-04-06T04:30:02;0.50;99.90
17423;DHT22;8829;47.932;7.810;2023-04-06T04:32:30;0.50;99.90
17423;DHT22;8829;47.932;7.810;2023-04-06T04:34:57;0.60;99.90
17423;DHT22;8829;47.932;7.810;2023-04-06T04:37:24;0.60;99.90
17423;DHT22;8829;47.932;7.810;2023-04-06T04:39:50;0.60;99.90
17423;DHT22;8829;47.932;7.810;2023-04-06T04:42:17;0.70;99.90
17423;DHT22;8829;47.932;7.810;2023-04-06T04:44:44;0.70;99.90
17423;DHT22;8829;47.932;7.810;2023-04-06T04:47:10;0.70;99.90
17423;DHT22;8829;47.932;7.810;2023-04-06T04:49:38;0.70;99.90
17423;DHT22;8829;47.932;7.810;2023-04-06T04:52:05;0.70;99.90
17423;DHT22;8829;47.932;7.810;2023-04-06T04:54:32;0.70;99.90
17423;DHT22;8829;47.932;7.810;2023-04-06T04:56:58;0.70;99.90
17423;DHT22;8829;47.932;7.810;2023-04-06T04:59:25;0.70;99.90
17423;DHT22;8829;47.932;7.810;2023-04-06T05:01:52;0.70;99.90
17423;DHT22;8829;47.932;7.810;2023-04-06T05:04:19;0.70;99.90
17423;DHT22;8829;47.932;7.810;2023-04-06T05:06:47;0.70;99.90
17423;DHT22;8829;47.932;7.810;2023-04-06T05:09:13;0.80;99.90
17423;DHT22;8829;47.932;7.810;2023-04-06T05:11:40;0.80;99.90
17423;DHT22;8829;47.932;7.810;2023-04-06T05:14:07;0.70;99.90
17423;DHT22;8829;47.932;7.810;2023-04-06T05:16:34;0.70;99.90
17423;DHT22;8829;47.932;7.810;2023-04-06T05:19:01;0.80;99.90
17423;DHT22;8829;47.932;7.810;2023-04-06T05:21:27;0.80;99.90
17423;DHT22;8829;47.932;7.810;2023-04-06T05:23:56;0.90;99.90
17423;DHT22;8829;47.932;7.810;2023-04-06T05:26:23;0.90;99.90
17423;DHT22;8829;47.932;7.810;2023-04-06T05:28:50;1.10;99.90
17423;DHT22;8829;47.932;7.810;2023-04-06T05:31:17;1.10;99.90
17423;DHT22;8829;47.932;7.810;2023-04-06T05:33:44;1.10;99.90
17423;DHT22;8829;47.932;7.810;2023-04-06T05:36:10;1.20;99.90
17423;DHT22;8829;47.932;7.810;2023-04-06T05:38:37;1.20;99.90
17423;DHT22;8829;47.932;7.810;2023-04-06T05:41:05;1.20;99.90
17423;DHT22;8829;47.932;7.810;2023-04-06T05:43:32;1.20;99.90
17423;DHT22;8829;47.932;7.810;2023-04-06T05:46:00;1.20;99.90
17423;DHT22;8829;47.932;7.810;2023-04-06T05:48:27;1.30;99.90
17423;DHT22;8829;47.932;7.810;2023-04-06T05:50:54;1.40;99.90
17423;DHT22;8829;47.932;7.810;2023-04-06T05:53:21;1.40;99.90
17423;DHT22;8829;47.932;7.810;2023-04-06T05:55:47;1.40;99.90
17423;DHT22;8829;47.932;7.810;2023-04-06T05:58:15;1.40;99.90
17423;DHT22;8829;47.932;7.810;2023-04-06T06:00:42;1.50;99.90
17423;DHT22;8829;47.932;7.810;2023-04-06T06:03:11;1.60;99.90
17423;DHT22;8829;47.932;7.810;2023-04-06T06:05:38;1.60;99.90
17423;DHT22;8829;47.932;7.810;2023-04-06T06:08:05;1.70;99.90
17423;DHT22;8829;47.932;7.810;2023-04-06T06:10:32;1.90;99.90
17423;DHT22;8829;47.932;7.810;2023-04-06T06:12:59;2.10;99.90
17423;DHT22;8829;47.932;7.810;2023-04-06T06:15:27;2.70;99.90
17423;DHT22;8829;47.932;7.810;2023-04-06T06:17:53;3.30;99.90
17423;DHT22;8829;47.932;7.810;2023-04-06T06:20:20;3.90;99.90
17423;DHT22;8829;47.932;7.810;2023-04-06T06:22:47;4.40;99.90
17423;DHT22;8829;47.932;7.810;2023-04-06T06:25:13;5.30;99.90
17423;DHT22;8829;47.932;7.810;2023-04-06T06:27:41;5.30;99.90
17423;DHT22;8829;47.932;7.810;2023-04-06T06:30:08;5.80;99.90
17423;DHT22;8829;47.932;7.810;2023-04-06T06:32:36;6.00;99.90
17423;DHT22;8829;47.932;7.810;2023-04-06T06:35:04;6.60;99.90
17423;DHT22;8829;47.932;7.810;2023-04-06T06:37:30;7.20;99.90
17423;DHT22;8829;47.932;7.810;2023-04-06T06:39:57;7.60;99.90
17423;DHT22;8829;47.932;7.810;2023-04-06T06:42:24;8.10;99.90
17423;DHT22;8829;47.932;7.810;2023-04-06T06:44:51;8.40;99.90
17423;DHT22;8829;47.932;7.810;2023-04-06T06:47:18;8.50;99.90
17423;DHT22;8829;47.932;7.810;2023-04-06T06:49:46;8.70;99.90
17423;DHT22;8829;47.932;7.810;2023-04-06T06:52:12;8.30;99.90
17423;DHT22;8829;47.932;7.810;2023-04-06T06:54:39;8.00;99.90
17423;DHT22;8829;47.932;7.810;2023-04-06T06:57:06;7.80;99.90
17423;DHT22;8829;47.932;7.810;2023-04-06T06:59:32;7.80;99.90
17423;DHT22;8829;47.932;7.810;2023-04-06T07:01:59;8.00;99.90
17423;DHT22;8829;47.932;7.810;2023-04-06T07:04:26;7.90;99.90
17423;DHT22;8829;47.932;7.810;2023-04-06T07:06:54;8.70;99.90
17423;DHT22;8829;47.932;7.810;2023-04-06T07:09:21;9.10;99.90
17423;DHT22;8829;47.932;7.810;2023-04-06T07:11:48;9.50;99.70
17423;DHT22;8829;47.932;7.810;2023-04-06T07:14:15;9.90;97.30
17423;DHT22;8829;47.932;7.810;2023-04-06T07:16:42;10.10;98.20
17423;DHT22;8829;47.932;7.810;2023-04-06T07:19:10;10.90;96.50
17423;DHT22;8829;47.932;7.810;2023-04-06T07:21:37;11.70;92.90
17423;DHT22;8829;47.932;7.810;2023-04-06T07:24:05;12.30;90.90
17423;DHT22;8829;47.932;7.810;2023-04-06T07:26:32;12.70;88.30
17423;DHT22;8829;47.932;7.810;2023-04-06T07:28:58;13.30;90.10
17423;DHT22;8829;47.932;7.810;2023-04-06T07:31:25;14.20;88.10
17423;DHT22;8829;47.932;7.810;2023-04-06T07:33:52;14.90;85.40
17423;DHT22;8829;47.932;7.810;2023-04-06T07:36:20;15.40;83.50
17423;DHT22;8829;47.932;7.810;2023-04-06T07:38:47;15.40;80.30
17423;DHT22;8829;47.932;7.810;2023-04-06T07:41:15;15.50;82.30
17423;DHT22;8829;47.932;7.810;2023-04-06T07:43:42;15.70;79.70
17423;DHT22;8829;47.932;7.810;2023-04-06T07:46:08;15.60;78.80
17423;DHT22;8829;47.932;7.810;2023-04-06T07:48:35;16.20;75.00
17423;DHT22;8829;47.932;7.810;2023-04-06T07:51:03;16.10;74.40
17423;DHT22;8829;47.932;7.810;2023-04-06T07:53:30;16.50;74.50
17423;DHT22;8829;47.932;7.810;2023-04-06T07:55:58;16.80;74.50
17423;DHT22;8829;47.932;7.810;2023-04-06T07:58:26;17.20;73.70
17423;DHT22;8829;47.932;7.810;2023-04-06T08:00:53;17.30;73.20
17423;DHT22;8829;47.932;7.810;2023-04-06T08:03:20;17.50;72.10
17423;DHT22;8829;47.932;7.810;2023-04-06T08:05:50;17.30;71.30
17423;DHT22;8829;47.932;7.810;2023-04-06T08:08:17;17.80;70.80
17423;DHT22;8829;47.932;7.810;2023-04-06T08:10:44;17.50;70.90
17423;DHT22;8829;47.932;7.810;2023-04-06T08:13:11;17.30;70.70
17423;DHT22;8829;47.932;7.810;2023-04-06T08:15:39;17.10;68.30
17423;DHT22;8829;47.932;7.810;2023-04-06T08:18:06;16.90;68.80
17423;DHT22;8829;47.932;7.810;2023-04-06T08:20:32;16.70;72.20
17423;DHT22;8829;47.932;7.810;2023-04-06T08:22:59;17.20;71.60
17423;DHT22;8829;47.932;7.810;2023-04-06T08:25:26;16.40;69.50
17423;DHT22;8829;47.932;7.810;2023-04-06T08:27:52;16.40;70.60
17423;DHT22;8829;47.932;7.810;2023-04-06T08:30:19;16.60;70.60
17423;DHT22;8829;47.932;7.810;2023-04-06T08:32:47;16.30;72.20
17423;DHT22;8829;47.932;7.810;2023-04-06T08:35:14;16.50;71.40
17423;DHT22;8829;47.932;7.810;2023-04-06T08:37:41;16.20;70.80
17423;DHT22;8829;47.932;7.810;2023-04-06T08:40:08;16.20;72.20
17423;DHT22;8829;47.932;7.810;2023-04-06T08:42:39;16.10;70.50
17423;DHT22;8829;47.932;7.810;2023-04-06T08:45:07;16.00;68.30
17423;DHT22;8829;47.932;7.810;2023-04-06T08:47:34;15.90;69.50
17423;DHT22;8829;47.932;7.810;2023-04-06T08:50:04;15.80;71.00
17423;DHT22;8829;47.932;7.810;2023-04-06T08:52:32;15.90;71.90
17423;DHT22;8829;47.932;7.810;2023-04-06T08:54:59;15.90;71.10
17423;DHT22;8829;47.932;7.810;2023-04-06T08:57:25;16.10;70.80
17423;DHT22;8829;47.932;7.810;2023-04-06T08:59:52;16.00;70.30
17423;DHT22;8829;47.932;7.810;2023-04-06T09:02:20;16.00;67.70
17423;DHT22;8829;47.932;7.810;2023-04-06T09:04:48;15.80;69.50
17423;DHT22;8829;47.932;7.810;2023-04-06T09:07:17;16.10;70.90
17423;DHT22;8829;47.932;7.810;2023-04-06T09:09:44;16.10;69.70
17423;DHT22;8829;47.932;7.810;2023-04-06T09:12:22;16.10;70.60
17423;DHT22;8829;47.932;7.810;2023-04-06T09:14:49;15.70;69.80
17423;DHT22;8829;47.932;7.810;2023-04-06T09:17:20;15.60;70.50
17423;DHT22;8829;47.932;7.810;2023-04-06T09:19:47;15.80;69.60
17423;DHT22;8829;47.932;7.810;2023-04-06T09:22:14;15.80;72.40
17423;DHT22;8829;47.932;7.810;2023-04-06T09:24:44;15.80;70.80
17423;DHT22;8829;47.932;7.810;2023-04-06T09:27:11;15.50;71.50
17423;DHT22;8829;47.932;7.810;2023-04-06T09:29:37;15.10;73.40
17423;DHT22;8829;47.932;7.810;2023-04-06T09:32:05;14.60;76.00
17423;DHT22;8829;47.932;7.810;2023-04-06T09:34:32;14.20;73.40
17423;DHT22;8829;47.932;7.810;2023-04-06T09:36:59;13.80;76.80
17423;DHT22;8829;47.932;7.810;2023-04-06T09:39:26;13.60;75.80
17423;DHT22;8829;47.932;7.810;2023-04-06T09:41:54;13.40;77.70
17423;DHT22;8829;47.932;7.810;2023-04-06T09:44:22;13.20;75.80
17423;DHT22;8829;47.932;7.810;2023-04-06T09:46:53;13.10;79.00
17423;DHT22;8829;47.932;7.810;2023-04-06T09:49:21;13.00;77.50
17423;DHT22;8829;47.932;7.810;2023-04-06T09:51:54;13.00;75.00
17423;DHT22;8829;47.932;7.810;2023-04-06T09:54:22;13.00;76.80
17423;DHT22;8829;47.932;7.810;2023-04-06T09:56:51;12.90;78.60
17423;DHT22;8829;47.932;7.810;2023-04-06T09:59:29;12.90;76.30
17423;DHT22;8829;47.932;7.810;2023-04-06T10:01:59;12.80;75.50
17423;DHT22;8829;47.932;7.810;2023-04-06T10:04:32;12.80;79.70
17423;DHT22;8829;47.932;7.810;2023-04-06T10:07:03;12.80;80.50
17423;DHT22;8829;47.932;7.810;2023-04-06T10:09:31;12.90;81.20
17423;DHT22;8829;47.932;7.810;2023-04-06T10:12:03;12.80;80.40
17423;DHT22;8829;47.932;7.810;2023-04-06T10:14:32;13.00;80.30
17423;DHT22;8829;47.932;7.810;2023-04-06T10:17:02;13.00;82.20
17423;DHT22;8829;47.932;7.810;2023-04-06T10:19:34;13.00;81.50
17423;DHT22;8829;47.932;7.810;2023-04-06T10:22:03;12.90;81.10
17423;DHT22;8829;47.932;7.810;2023-04-06T10:24:31;12.80;81.90
17423;DHT22;8829;47.932;7.810;2023-04-06T10:26:58;12.70;83.50
17423;DHT22;8829;47.932;7.810;2023-04-06T10:29:25;12.60;80.90
17423;DHT22;8829;47.932;7.810;2023-04-06T10:31:53;12.70;81.70
17423;DHT22;8829;47.932;7.810;2023-04-06T10:34:21;12.50;81.10
17423;DHT22;8829;47.932;7.810;2023-04-06T10:36:48;12.50;79.50
17423;DHT22;8829;47.932;7.810;2023-04-06T10:39:24;12.60;81.40
17423;DHT22;8829;47.932;7.810;2023-04-06T10:41:51;12.60;81.20
17423;DHT22;8829;47.932;7.810;2023-04-06T10:44:20;12.50;78.90
17423;DHT22;8829;47.932;7.810;2023-04-06T10:46:55;12.50;78.10
17423;DHT22;8829;47.932;7.810;2023-04-06T10:49:22;12.50;77.90
17423;DHT22;8829;47.932;7.810;2023-04-06T10:51:52;12.50;78.00
17423;DHT22;8829;47.932;7.810;2023-04-06T10:54:21;12.60;81.00
17423;DHT22;8829;47.932;7.810;2023-04-06T10:56:48;12.60;78.80
17423;DHT22;8829;47.932;7.810;2023-04-06T10:59:19;12.60;78.70
17423;DHT22;8829;47.932;7.810;2023-04-06T11:01:46;12.50;78.60
17423;DHT22;8829;47.932;7.810;2023-04-06T11:04:17;12.40;80.30
17423;DHT22;8829;47.932;7.810;2023-04-06T11:06:47;12.60;80.70
17423;DHT22;8829;47.932;7.810;2023-04-06T11:09:23;12.60;78.50
17423;DHT22;8829;47.932;7.810;2023-04-06T11:11:51;12.60;78.20
17423;DHT22;8829;47.932;7.810;2023-04-06T11:14:18;12.50;77.40
17423;DHT22;8829;47.932;7.810;2023-04-06T11:16:46;12.50;78.70
17423;DHT22;8829;47.932;7.810;2023-04-06T11:19:13;12.40;75.70
17423;DHT22;8829;47.932;7.810;2023-04-06T11:21:43;12.30;77.10
17423;DHT22;8829;47.932;7.810;2023-04-06T11:24:14;12.20;80.50
17423;DHT22;8829;47.932;7.810;2023-04-06T11:26:43;12.20;80.40
17423;DHT22;8829;47.932;7.810;2023-04-06T11:29:11;12.30;79.80
17423;DHT22;8829;47.932;7.810;2023-04-06T11:31:42;12.30;76.20
17423;DHT22;8829;47.932;7.810;2023-04-06T11:34:10;12.30;75.70
17423;DHT22;8829;47.932;7.810;2023-04-06T11:36:41;12.30;76.90
17423;DHT22;8829;47.932;7.810;2023-04-06T11:39:09;12.40;76.70
17423;DHT22;8829;47.932;7.810;2023-04-06T11:41:35;12.50;75.90
17423;DHT22;8829;47.932;7.810;2023-04-06T11:44:02;12.60;75.70
17423;DHT22;8829;47.932;7.810;2023-04-06T11:46:29;12.60;76.40
17423;DHT22;8829;47.932;7.810;2023-04-06T11:48:58;12.80;75.70
17423;DHT22;8829;47.932;7.810;2023-04-06T11:51:25;13.00;74.50
17423;DHT22;8829;47.932;7.810;2023-04-06T11:53:54;13.10;74.40
17423;DHT22;8829;47.932;7.810;2023-04-06T11:56:26;13.00;73.80
17423;DHT22;8829;47.932;7.810;2023-04-06T11:58:54;13.10;71.40
17423;DHT22;8829;47.932;7.810;2023-04-06T12:01:21;13.00;71.40
17423;DHT22;8829;47.932;7.810;2023-04-06T12:03:48;12.90;73.40
17423;DHT22;8829;47.932;7.810;2023-04-06T12:06:14;13.00;74.00
17423;DHT22;8829;47.932;7.810;2023-04-06T12:08:41;13.10;74.00
17423;DHT22;8829;47.932;7.810;2023-04-06T12:11:09;13.10;74.90
17423;DHT22;8829;47.932;7.810;2023-04-06T12:13:36;13.10;76.30
17423;DHT22;8829;47.932;7.810;2023-04-06T12:16:02;13.20;74.40
17423;DHT22;8829;47.932;7.810;2023-04-06T12:18:30;13.20;73.70
17423;DHT22;8829;47.932;7.810;2023-04-06T12:20:56;13.20;74.90
17423;DHT22;8829;47.932;7.810;2023-04-06T12:23:23;13.10;76.10
17423;DHT22;8829;47.932;7.810;2023-04-06T12:25:50;13.20;76.70
17423;DHT22;8829;47.932;7.810;2023-04-06T12:28:18;13.30;76.80
17423;DHT22;8829;47.932;7.810;2023-04-06T12:30:48;13.40;76.50
17423;DHT22;8829;47.932;7.810;2023-04-06T12:33:15;13.50;75.70
17423;DHT22;8829;47.932;7.810;2023-04-06T12:35:41;13.50;75.10
17423;DHT22;8829;47.932;7.810;2023-04-06T12:38:08;13.60;74.40
17423;DHT22;8829;47.932;7.810;2023-04-06T12:40:37;13.70;75.40
17423;DHT22;8829;47.932;7.810;2023-04-06T12:43:04;13.60;73.70
17423;DHT22;8829;47.932;7.810;2023-04-06T12:45:32;13.60;74.70
17423;DHT22;8829;47.932;7.810;2023-04-06T12:47:58;13.60;74.40
17423;DHT22;8829;47.932;7.810;2023-04-06T12:50:25;13.60;73.90
17423;DHT22;8829;47.932;7.810;2023-04-06T12:52:52;13.60;75.80
17423;DHT22;8829;47.932;7.810;2023-04-06T12:55:19;13.80;73.90
17423;DHT22;8829;47.932;7.810;2023-04-06T12:57:47;13.80;74.40
17423;DHT22;8829;47.932;7.810;2023-04-06T13:00:14;13.70;74.00
17423;DHT22;8829;47.932;7.810;2023-04-06T13:02:42;13.70;74.30
17423;DHT22;8829;47.932;7.810;2023-04-06T13:05:12;13.70;74.60
17423;DHT22;8829;47.932;7.810;2023-04-06T13:07:39;13.90;74.30
17423;DHT22;8829;47.932;7.810;2023-04-06T13:10:06;14.00;75.60
17423;DHT22;8829;47.932;7.810;2023-04-06T13:12:33;14.00;73.00
17423;DHT22;8829;47.932;7.810;2023-04-06T13:15:00;14.20;72.50
17423;DHT22;8829;47.932;7.810;2023-04-06T13:17:27;14.20;72.70
17423;DHT22;8829;47.932;7.810;2023-04-06T13:19:55;14.20;74.10
17423;DHT22;8829;47.932;7.810;2023-04-06T13:22:22;14.20;74.00
17423;DHT22;8829;47.932;7.810;2023-04-06T13:24:48;14.30;72.50
17423;DHT22;8829;47.932;7.810;2023-04-06T13:27:15;14.40;72.30
17423;DHT22;8829;47.932;7.810;2023-04-06T13:29:42;14.30;75.20
17423;DHT22;8829;47.932;7.810;2023-04-06T13:32:08;14.10;72.70
17423;DHT22;8829;47.932;7.810;2023-04-06T13:34:35;14.10;72.80
17423;DHT22;8829;47.932;7.810;2023-04-06T13:37:05;14.00;73.00
17423;DHT22;8829;47.932;7.810;2023-04-06T13:39:31;13.80;73.70
17423;DHT22;8829;47.932;7.810;2023-04-06T13:41:58;13.70;75.80
17423;DHT22;8829;47.932;7.810;2023-04-06T13:44:25;13.80;73.70
17423;DHT22;8829;47.932;7.810;2023-04-06T13:46:52;13.90;73.50
17423;DHT22;8829;47.932;7.810;2023-04-06T13:49:19;13.80;73.70
17423;DHT22;8829;47.932;7.810;2023-04-06T13:51:45;13.70;73.80
17423;DHT22;8829;47.932;7.810;2023-04-06T13:54:13;13.70;73.70
17423;DHT22;8829;47.932;7.810;2023-04-06T13:56:40;13.80;73.70
17423;DHT22;8829;47.932;7.810;2023-04-06T13:59:06;13.70;75.00
17423;DHT22;8829;47.932;7.810;2023-04-06T14:01:33;13.70;72.30
17423;DHT22;8829;47.932;7.810;2023-04-06T14:04:00;13.80;73.10
17423;DHT22;8829;47.932;7.810;2023-04-06T14:06:27;13.90;74.60
17423;DHT22;8829;47.932;7.810;2023-04-06T14:08:53;13.90;74.20
17423;DHT22;8829;47.932;7.810;2023-04-06T14:11:21;14.00;75.60
17423;DHT22;8829;47.932;7.810;2023-04-06T14:13:48;14.10;74.60
17423;DHT22;8829;47.932;7.810;2023-04-06T14:16:15;13.90;75.50
17423;DHT22;8829;47.932;7.810;2023-04-06T14:18:44;14.00;74.60
17423;DHT22;8829;47.932;7.810;2023-04-06T14:21:11;13.60;74.60
17423;DHT22;8829;47.932;7.810;2023-04-06T14:23:38;13.50;75.60
17423;DHT22;8829;47.932;7.810;2023-04-06T14:26:06;13.70;74.20
17423;DHT22;8829;47.932;7.810;2023-04-06T14:28:35;13.70;75.40
17423;DHT22;8829;47.932;7.810;2023-04-06T14:31:09;13.70;75.80
17423;DHT22;8829;47.932;7.810;2023-04-06T14:33:36;13.60;75.90
17423;DHT22;8829;47.932;7.810;2023-04-06T14:36:04;13.60;77.20
17423;DHT22;8829;47.932;7.810;2023-04-06T14:38:31;13.50;76.70
17423;DHT22;8829;47.932;7.810;2023-04-06T14:40:58;13.70;76.50
17423;DHT22;8829;47.932;7.810;2023-04-06T14:43:24;13.70;77.50
17423;DHT22;8829;47.932;7.810;2023-04-06T14:45:53;13.90;76.50
17423;DHT22;8829;47.932;7.810;2023-04-06T14:48:19;13.80;75.30
17423;DHT22;8829;47.932;7.810;2023-04-06T14:50:52;13.70;75.40
17423;DHT22;8829;47.932;7.810;2023-04-06T14:53:19;13.70;76.40
17423;DHT22;8829;47.932;7.810;2023-04-06T14:55:46;13.80;76.80
17423;DHT22;8829;47.932;7.810;2023-04-06T14:58:17;13.60;76.40
17423;DHT22;8829;47.932;7.810;2023-04-06T15:00:44;13.60;76.20
17423;DHT22;8829;47.932;7.810;2023-04-06T15:03:12;13.60;76.60
17423;DHT22;8829;47.932;7.810;2023-04-06T15:05:39;13.60;77.30
17423;DHT22;8829;47.932;7.810;2023-04-06T15:08:06;13.60;77.30
17423;DHT22;8829;47.932;7.810;2023-04-06T15:10:35;13.60;76.60
17423;DHT22;8829;47.932;7.810;2023-04-06T15:13:02;13.50;78.40
17423;DHT22;8829;47.932;7.810;2023-04-06T15:15:29;13.30;79.50
17423;DHT22;8829;47.932;7.810;2023-04-06T15:17:55;13.30;80.00
17423;DHT22;8829;47.932;7.810;2023-04-06T15:20:23;13.30;81.00
17423;DHT22;8829;47.932;7.810;2023-04-06T15:22:50;13.20;80.50
17423;DHT22;8829;47.932;7.810;2023-04-06T15:25:17;13.20;81.50
17423;DHT22;8829;47.932;7.810;2023-04-06T15:27:44;13.20;80.60
17423;DHT22;8829;47.932;7.810;2023-04-06T15:30:11;13.10;81.40
17423;DHT22;8829;47.932;7.810;2023-04-06T15:32:37;13.20;80.20
17423;DHT22;8829;47.932;7.810;2023-04-06T15:35:09;13.20;80.10
17423;DHT22;8829;47.932;7.810;2023-04-06T15:37:38;13.10;82.10
17423;DHT22;8829;47.932;7.810;2023-04-06T15:40:05;13.20;82.10
17423;DHT22;8829;47.932;7.810;2023-04-06T15:42:32;13.20;81.00
17423;DHT22;8829;47.932;7.810;2023-04-06T15:44:59;13.20;79.30
17423;DHT22;8829;47.932;7.810;2023-04-06T15:47:26;13.20;80.70
17423;DHT22;8829;47.932;7.810;2023-04-06T15:49:52;13.00;82.30
17423;DHT22;8829;47.932;7.810;2023-04-06T15:52:19;13.00;82.50